KAFW

Fort Worth Alliance Airport

Fort Worth, Texas, USA

KAFW 110853Z 27004KT 10SM FEW250 08/M08 A3026 RMK AO2 SLP244 T00831078 56003

Observed Flight Rules
Dec-11 @ 08:53 UTC (35 minutes ago) Visual Flight Rules
Wind Visibility Clouds
270° at 4 knots 10 miles
  • Few at 25,000' AGL
Temperatures Readings
Current 8°C / 46°F
Dewpoint -8°C / 18°F
Humidity 32%
Altimeter 30.26" Hg
Pressure 1024.4 hPa
Elevation 233
Observed Flight Rules
Dec-11 @ 08:53 UTC
(35 minutes ago)
VFR
Wind Visibility
270° at 4 knots 10 miles
Clouds
  • Few at 25,000' AGL
Temperature Dewpoint
8°C / 46°F -8°C / 18°F
Humidity Altimeter Pressure
32% 30.26" Hg 1024.4 hPa